sensor_id;sensor_type;location;lat;lon;timestamp;pressure;altitude;pressure_sealevel;temperature;humidity
80164;BME280;70071;55.130;61.268;2023-07-02T00:00:16;97081.78;;;24.69;36.83
80164;BME280;70071;55.130;61.268;2023-07-02T00:02:42;97070.66;;;24.62;37.07
80164;BME280;70071;55.130;61.268;2023-07-02T00:05:09;97051.66;;;24.44;37.18
80164;BME280;70071;55.130;61.268;2023-07-02T00:07:35;97077.16;;;24.70;36.93
80164;BME280;70071;55.130;61.268;2023-07-02T00:10:04;97080.97;;;24.69;36.50
80164;BME280;70071;55.130;61.268;2023-07-02T00:12:30;97071.91;;;24.64;36.98
80164;BME280;70071;55.130;61.268;2023-07-02T00:14:58;97076.69;;;24.68;37.03
80164;BME280;70071;55.130;61.268;2023-07-02T00:17:23;97078.88;;;24.83;36.67
80164;BME280;70071;55.130;61.268;2023-07-02T00:19:50;97067.28;;;24.65;36.66
80164;BME280;70071;55.130;61.268;2023-07-02T00:22:17;97075.09;;;24.67;37.11
80164;BME280;70071;55.130;61.268;2023-07-02T00:24:44;97072.25;;;24.63;36.48
80164;BME280;70071;55.130;61.268;2023-07-02T00:27:11;97079.72;;;24.66;36.45
80164;BME280;70071;55.130;61.268;2023-07-02T00:29:37;97078.13;;;24.65;36.34
80164;BME280;70071;55.130;61.268;2023-07-02T00:32:04;97087.38;;;24.64;36.55
80164;BME280;70071;55.130;61.268;2023-07-02T00:34:32;97075.59;;;24.51;36.29
80164;BME280;70071;55.130;61.268;2023-07-02T00:36:59;97106.03;;;24.65;36.39
80164;BME280;70071;55.130;61.268;2023-07-02T00:39:26;97091.69;;;24.65;36.66
80164;BME280;70071;55.130;61.268;2023-07-02T00:41:53;97090.25;;;24.68;36.94
80164;BME280;70071;55.130;61.268;2023-07-02T00:44:20;97093.09;;;24.71;36.53
80164;BME280;70071;55.130;61.268;2023-07-02T00:46:47;97089.41;;;24.76;36.94
80164;BME280;70071;55.130;61.268;2023-07-02T00:49:13;97089.38;;;24.93;36.35
80164;BME280;70071;55.130;61.268;2023-07-02T00:51:42;97078.91;;;24.74;36.27
80164;BME280;70071;55.130;61.268;2023-07-02T00:54:08;97085.09;;;24.75;36.10
80164;BME280;70071;55.130;61.268;2023-07-02T00:56:35;97060.56;;;24.71;36.43
80164;BME280;70071;55.130;61.268;2023-07-02T00:59:00;97083.66;;;24.86;36.80
80164;BME280;70071;55.130;61.268;2023-07-02T01:01:27;97083.31;;;24.88;36.87
80164;BME280;70071;55.130;61.268;2023-07-02T01:04:01;97082.66;;;24.91;36.68
80164;BME280;70071;55.130;61.268;2023-07-02T01:06:36;97080.41;;;24.93;36.63
80164;BME280;70071;55.130;61.268;2023-07-02T01:09:07;97072.00;;;24.86;36.34
80164;BME280;70071;55.130;61.268;2023-07-02T14:13:58;97038.81;;;30.04;38.26
80164;BME280;70071;55.130;61.268;2023-07-02T14:16:28;97025.94;;;29.85;38.52
80164;BME280;70071;55.130;61.268;2023-07-02T14:18:54;97012.63;;;29.84;38.37
80164;BME280;70071;55.130;61.268;2023-07-02T14:21:40;97018.94;;;29.88;39.56
80164;BME280;70071;55.130;61.268;2023-07-02T14:24:46;97007.69;;;29.73;39.21
80164;BME280;70071;55.130;61.268;2023-07-02T14:27:26;97019.06;;;29.75;40.22
80164;BME280;70071;55.130;61.268;2023-07-02T14:29:54;97003.88;;;29.58;40.18
80164;BME280;70071;55.130;61.268;2023-07-02T14:32:21;96993.16;;;29.50;40.71
80164;BME280;70071;55.130;61.268;2023-07-02T14:34:47;96995.38;;;29.44;41.00
80164;BME280;70071;55.130;61.268;2023-07-02T14:37:14;97003.22;;;29.46;41.45
80164;BME280;70071;55.130;61.268;2023-07-02T14:39:40;96975.59;;;29.31;40.64
80164;BME280;70071;55.130;61.268;2023-07-02T14:42:06;96993.28;;;29.37;41.23
80164;BME280;70071;55.130;61.268;2023-07-02T14:44:33;96972.69;;;29.24;41.64
80164;BME280;70071;55.130;61.268;2023-07-02T14:47:01;96968.22;;;29.16;41.07
80164;BME280;70071;55.130;61.268;2023-07-02T14:49:27;96979.91;;;29.16;41.52
80164;BME280;70071;55.130;61.268;2023-07-02T14:51:53;96988.19;;;29.20;40.76
80164;BME280;70071;55.130;61.268;2023-07-02T14:54:22;96980.56;;;29.10;41.44
80164;BME280;70071;55.130;61.268;2023-07-02T14:56:50;96998.50;;;29.11;41.16
80164;BME280;70071;55.130;61.268;2023-07-02T14:59:16;96995.63;;;29.03;42.32
80164;BME280;70071;55.130;61.268;2023-07-02T15:01:43;96993.16;;;28.98;42.72
80164;BME280;70071;55.130;61.268;2023-07-02T15:04:10;97001.34;;;28.98;42.82
80164;BME280;70071;55.130;61.268;2023-07-02T15:06:36;97002.34;;;28.90;42.04
80164;BME280;70071;55.130;61.268;2023-07-02T15:09:02;97010.09;;;28.88;42.75
80164;BME280;70071;55.130;61.268;2023-07-02T15:11:29;97006.13;;;28.85;43.22
80164;BME280;70071;55.130;61.268;2023-07-02T15:13:57;97004.34;;;28.77;43.26
80164;BME280;70071;55.130;61.268;2023-07-02T15:16:25;96993.19;;;28.66;43.01
80164;BME280;70071;55.130;61.268;2023-07-02T15:18:51;96986.41;;;28.60;43.60
80164;BME280;70071;55.130;61.268;2023-07-02T15:21:17;97006.88;;;28.54;43.63
80164;BME280;70071;55.130;61.268;2023-07-02T15:23:44;97014.19;;;28.50;43.63
80164;BME280;70071;55.130;61.268;2023-07-02T15:26:10;97016.78;;;28.75;42.62
80164;BME280;70071;55.130;61.268;2023-07-02T15:28:36;97020.34;;;28.47;42.29
80164;BME280;70071;55.130;61.268;2023-07-02T15:31:05;97014.72;;;28.40;42.13
80164;BME280;70071;55.130;61.268;2023-07-02T15:33:32;97019.97;;;28.32;43.34
80164;BME280;70071;55.130;61.268;2023-07-02T15:36:00;97009.84;;;28.17;42.72
80164;BME280;70071;55.130;61.268;2023-07-02T15:38:27;97022.31;;;28.18;42.62
80164;BME280;70071;55.130;61.268;2023-07-02T15:41:08;97034.22;;;28.26;42.83
80164;BME280;70071;55.130;61.268;2023-07-02T15:43:35;97017.91;;;28.13;44.64
80164;BME280;70071;55.130;61.268;2023-07-02T15:46:01;97014.66;;;28.08;45.33
80164;BME280;70071;55.130;61.268;2023-07-02T15:48:27;97005.50;;;28.00;44.59
80164;BME280;70071;55.130;61.268;2023-07-02T15:50:53;97020.47;;;28.06;44.51
80164;BME280;70071;55.130;61.268;2023-07-02T15:53:19;97019.47;;;27.98;44.54
80164;BME280;70071;55.130;61.268;2023-07-02T15:55:47;97009.94;;;27.92;44.97
80164;BME280;70071;55.130;61.268;2023-07-02T15:58:33;97026.25;;;28.05;45.22
80164;BME280;70071;55.130;61.268;2023-07-02T16:01:11;97032.16;;;27.94;46.12
80164;BME280;70071;55.130;61.268;2023-07-02T16:03:39;97021.09;;;27.75;45.54
80164;BME280;70071;55.130;61.268;2023-07-02T16:06:07;97039.41;;;27.74;45.08
80164;BME280;70071;55.130;61.268;2023-07-02T16:08:33;97025.47;;;27.63;44.87
80164;BME280;70071;55.130;61.268;2023-07-02T16:10:59;97032.41;;;27.61;44.10
80164;BME280;70071;55.130;61.268;2023-07-02T16:13:27;97044.53;;;27.63;44.25
80164;BME280;70071;55.130;61.268;2023-07-02T16:15:54;97036.50;;;27.55;43.88
80164;BME280;70071;55.130;61.268;2023-07-02T16:18:20;97041.03;;;27.51;44.20
80164;BME280;70071;55.130;61.268;2023-07-02T16:20:59;97046.22;;;27.56;44.60
80164;BME280;70071;55.130;61.268;2023-07-02T16:23:25;97039.69;;;27.44;44.59
80164;BME280;70071;55.130;61.268;2023-07-02T16:25:57;97035.72;;;27.42;44.97
80164;BME280;70071;55.130;61.268;2023-07-02T16:28:24;97043.88;;;27.42;45.42
80164;BME280;70071;55.130;61.268;2023-07-02T16:30:50;97028.81;;;27.32;45.39
80164;BME280;70071;55.130;61.268;2023-07-02T16:33:17;97037.28;;;27.30;45.42
80164;BME280;70071;55.130;61.268;2023-07-02T16:35:45;97031.19;;;27.21;46.08
80164;BME280;70071;55.130;61.268;2023-07-02T16:38:11;97024.72;;;27.13;46.40
80164;BME280;70071;55.130;61.268;2023-07-02T16:40:37;97044.66;;;27.18;46.36
80164;BME280;70071;55.130;61.268;2023-07-02T16:43:03;97046.59;;;27.17;46.00
80164;BME280;70071;55.130;61.268;2023-07-02T16:45:30;97044.34;;;27.07;46.32
80164;BME280;70071;55.130;61.268;2023-07-02T16:47:56;97061.47;;;27.07;46.47
80164;BME280;70071;55.130;61.268;2023-07-02T16:50:27;97054.69;;;27.01;46.09
80164;BME280;70071;55.130;61.268;2023-07-02T16:52:53;97058.06;;;26.98;46.48
80164;BME280;70071;55.130;61.268;2023-07-02T16:55:19;97066.09;;;27.19;46.03
80164;BME280;70071;55.130;61.268;2023-07-02T16:57:46;97056.91;;;26.87;46.00
80164;BME280;70071;55.130;61.268;2023-07-02T17:00:12;97046.28;;;26.82;46.04
80164;BME280;70071;55.130;61.268;2023-07-02T17:02:39;97047.28;;;26.77;46.39
80164;BME280;70071;55.130;61.268;2023-07-02T17:05:07;97065.06;;;26.74;46.94
80164;BME280;70071;55.130;61.268;2023-07-02T17:07:33;97043.94;;;26.59;47.27
80164;BME280;70071;55.130;61.268;2023-07-02T17:09:59;97059.91;;;26.60;47.57
80164;BME280;70071;55.130;61.268;2023-07-02T17:12:25;97069.28;;;26.84;46.85
80164;BME280;70071;55.130;61.268;2023-07-02T17:14:51;97063.09;;;26.63;46.95
80164;BME280;70071;55.130;61.268;2023-07-02T17:17:23;97049.22;;;26.43;47.60
80164;BME280;70071;55.130;61.268;2023-07-02T17:19:57;97043.56;;;26.36;47.71
80164;BME280;70071;55.130;61.268;2023-07-02T17:22:31;97051.47;;;26.41;47.44
80164;BME280;70071;55.130;61.268;2023-07-02T17:24:57;97052.69;;;26.31;47.44
80164;BME280;70071;55.130;61.268;2023-07-02T17:27:28;97057.00;;;26.32;47.77
80164;BME280;70071;55.130;61.268;2023-07-02T17:30:00;97033.50;;;26.15;48.29
80164;BME280;70071;55.130;61.268;2023-07-02T17:32:33;97042.78;;;26.14;48.33
80164;BME280;70071;55.130;61.268;2023-07-02T17:34:59;97051.59;;;26.11;48.34
80164;BME280;70071;55.130;61.268;2023-07-02T17:37:25;97039.06;;;25.98;48.07
80164;BME280;70071;55.130;61.268;2023-07-02T17:39:51;97069.81;;;26.32;47.49
80164;BME280;70071;55.130;61.268;2023-07-02T17:42:18;97049.63;;;25.99;47.51
80164;BME280;70071;55.130;61.268;2023-07-02T17:44:46;97059.41;;;25.92;48.16
80164;BME280;70071;55.130;61.268;2023-07-02T17:47:15;97067.38;;;25.97;47.83
80164;BME280;70071;55.130;61.268;2023-07-02T17:49:44;97064.41;;;25.89;48.20
80164;BME280;70071;55.130;61.268;2023-07-02T17:52:14;97062.66;;;25.85;48.39
80164;BME280;70071;55.130;61.268;2023-07-02T17:54:51;97067.78;;;25.86;48.95
80164;BME280;70071;55.130;61.268;2023-07-02T17:57:20;97062.94;;;25.71;48.96
80164;BME280;70071;55.130;61.268;2023-07-02T17:59:47;97075.88;;;25.74;49.09
80164;BME280;70071;55.130;61.268;2023-07-02T18:02:16;97063.88;;;25.75;49.00
80164;BME280;70071;55.130;61.268;2023-07-02T18:04:44;97075.31;;;25.81;48.93
80164;BME280;70071;55.130;61.268;2023-07-02T18:07:13;97066.13;;;25.73;48.83
80164;BME280;70071;55.130;61.268;2023-07-02T18:09:41;97076.69;;;25.66;49.87
80164;BME280;70071;55.130;61.268;2023-07-02T18:12:10;97069.41;;;25.58;50.17
80164;BME280;70071;55.130;61.268;2023-07-02T18:14:40;97075.63;;;25.58;50.19
80164;BME280;70071;55.130;61.268;2023-07-02T18:17:07;97066.97;;;25.44;50.18
80164;BME280;70071;55.130;61.268;2023-07-02T18:19:33;97079.88;;;25.47;50.29
80164;BME280;70071;55.130;61.268;2023-07-02T18:22:01;97077.38;;;25.42;50.17
80164;BME280;70071;55.130;61.268;2023-07-02T18:24:30;97078.47;;;25.41;50.48
80164;BME280;70071;55.130;61.268;2023-07-02T18:26:58;97091.13;;;25.36;50.45
80164;BME280;70071;55.130;61.268;2023-07-02T18:29:24;97076.75;;;25.27;50.92
80164;BME280;70071;55.130;61.268;2023-07-02T18:31:50;97083.16;;;25.23;51.02
80164;BME280;70071;55.130;61.268;2023-07-02T18:34:16;97091.19;;;25.49;50.47
80164;BME280;70071;55.130;61.268;2023-07-02T18:36:42;97076.47;;;25.20;50.60
80164;BME280;70071;55.130;61.268;2023-07-02T18:39:18;97092.59;;;25.25;51.00
80164;BME280;70071;55.130;61.268;2023-07-02T18:41:47;97096.75;;;25.23;50.67
80164;BME280;70071;55.130;61.268;2023-07-02T18:44:13;97082.75;;;25.12;50.56
80164;BME280;70071;55.130;61.268;2023-07-02T18:46:39;97090.66;;;25.34;50.70
80164;BME280;70071;55.130;61.268;2023-07-02T18:49:06;97086.75;;;25.14;50.56
80164;BME280;70071;55.130;61.268;2023-07-02T18:51:32;97092.66;;;25.08;50.63
80164;BME280;70071;55.130;61.268;2023-07-02T18:54:00;97088.25;;;24.94;51.01
80164;BME280;70071;55.130;61.268;2023-07-02T18:56:27;97104.56;;;24.86;51.14
80164;BME280;70071;55.130;61.268;2023-07-02T18:58:54;97104.84;;;24.93;51.24
80164;BME280;70071;55.130;61.268;2023-07-02T19:01:20;97105.91;;;25.09;51.78
80164;BME280;70071;55.130;61.268;2023-07-02T19:03:46;97102.31;;;24.88;51.46
80164;BME280;70071;55.130;61.268;2023-07-02T19:06:13;97107.59;;;24.84;51.93
80164;BME280;70071;55.130;61.268;2023-07-02T19:08:40;97096.13;;;24.78;51.65
80164;BME280;70071;55.130;61.268;2023-07-02T19:11:07;97105.38;;;24.77;52.09
80164;BME280;70071;55.130;61.268;2023-07-02T19:13:35;97115.75;;;24.75;51.68
80164;BME280;70071;55.130;61.268;2023-07-02T19:16:01;97114.16;;;24.74;51.58
80164;BME280;70071;55.130;61.268;2023-07-02T19:18:28;97106.84;;;24.66;51.81
80164;BME280;70071;55.130;61.268;2023-07-02T19:20:59;97109.56;;;24.66;51.42
80164;BME280;70071;55.130;61.268;2023-07-02T19:23:27;97116.56;;;24.67;51.32
80164;BME280;70071;55.130;61.268;2023-07-02T19:25:56;97120.41;;;24.66;50.76
80164;BME280;70071;55.130;61.268;2023-07-02T19:28:23;97126.63;;;24.58;51.34
80164;BME280;70071;55.130;61.268;2023-07-02T19:30:49;97128.38;;;24.54;50.90
80164;BME280;70071;55.130;61.268;2023-07-02T19:33:22;97135.84;;;24.83;49.71
80164;BME280;70071;55.130;61.268;2023-07-02T19:35:48;97136.69;;;24.66;50.33
80164;BME280;70071;55.130;61.268;2023-07-02T19:38:15;97141.28;;;24.57;50.38
80164;BME280;70071;55.130;61.268;2023-07-02T19:40:51;97133.00;;;24.53;50.28
80164;BME280;70071;55.130;61.268;2023-07-02T19:43:17;97130.59;;;24.43;50.12
80164;BME280;70071;55.130;61.268;2023-07-02T19:45:43;97149.94;;;24.59;50.03
80164;BME280;70071;55.130;61.268;2023-07-02T19:48:08;97145.75;;;24.53;50.00
80164;BME280;70071;55.130;61.268;2023-07-02T19:50:34;97133.16;;;24.39;49.98
80164;BME280;70071;55.130;61.268;2023-07-02T19:53:00;97145.28;;;24.51;49.63
80164;BME280;70071;55.130;61.268;2023-07-02T19:55:26;97126.81;;;24.26;49.96
80164;BME280;70071;55.130;61.268;2023-07-02T19:57:52;97142.25;;;24.35;50.16
80164;BME280;70071;55.130;61.268;2023-07-02T20:00:18;97111.19;;;24.15;50.81
80164;BME280;70071;55.130;61.268;2023-07-02T20:02:46;97130.63;;;24.34;50.91
80164;BME280;70071;55.130;61.268;2023-07-02T20:05:12;97135.88;;;24.30;50.57
80164;BME280;70071;55.130;61.268;2023-07-02T20:07:38;97139.88;;;24.33;50.92
80164;BME280;70071;55.130;61.268;2023-07-02T20:10:05;97136.69;;;24.22;51.27
80164;BME280;70071;55.130;61.268;2023-07-02T20:12:32;97133.34;;;24.17;51.08
80164;BME280;70071;55.130;61.268;2023-07-02T20:14:59;97133.00;;;24.09;51.46
80164;BME280;70071;55.130;61.268;2023-07-02T20:17:28;97142.28;;;24.08;51.82
80164;BME280;70071;55.130;61.268;2023-07-02T20:19:56;97118.69;;;23.91;51.67
80164;BME280;70071;55.130;61.268;2023-07-02T20:22:22;97138.13;;;24.02;51.74
80164;BME280;70071;55.130;61.268;2023-07-02T20:24:50;97143.69;;;24.06;51.50
80164;BME280;70071;55.130;61.268;2023-07-02T20:27:17;97144.81;;;24.05;52.13
80164;BME280;70071;55.130;61.268;2023-07-02T20:29:49;97144.00;;;24.04;51.96
80164;BME280;70071;55.130;61.268;2023-07-02T20:32:17;97136.06;;;23.99;51.68
80164;BME280;70071;55.130;61.268;2023-07-02T20:34:48;97121.41;;;23.91;51.55
80164;BME280;70071;55.130;61.268;2023-07-02T20:37:15;97123.44;;;23.86;51.55
80164;BME280;70071;55.130;61.268;2023-07-02T20:39:44;97128.56;;;23.87;51.49
80164;BME280;70071;55.130;61.268;2023-07-02T20:42:14;97133.97;;;23.87;51.76
80164;BME280;70071;55.130;61.268;2023-07-02T20:44:47;97140.50;;;23.95;50.80
80164;BME280;70071;55.130;61.268;2023-07-02T20:47:17;97144.34;;;24.03;50.48
80164;BME280;70071;55.130;61.268;2023-07-02T20:49:44;97137.47;;;23.97;50.30
80164;BME280;70071;55.130;61.268;2023-07-02T20:52:16;97136.22;;;24.03;50.08
80164;BME280;70071;55.130;61.268;2023-07-02T20:54:42;97118.31;;;23.75;50.83
80164;BME280;70071;55.130;61.268;2023-07-02T20:57:12;97149.28;;;23.92;50.88
80164;BME280;70071;55.130;61.268;2023-07-02T20:59:40;97151.50;;;23.90;50.96
80164;BME280;70071;55.130;61.268;2023-07-02T21:02:06;97141.56;;;23.76;51.41
80164;BME280;70071;55.130;61.268;2023-07-02T21:04:36;97139.97;;;23.75;51.96
80164;BME280;70071;55.130;61.268;2023-07-02T21:07:02;97149.84;;;23.80;51.33
80164;BME280;70071;55.130;61.268;2023-07-02T21:09:29;97135.81;;;23.69;51.72
80164;BME280;70071;55.130;61.268;2023-07-02T21:11:55;97142.19;;;23.73;51.43
80164;BME280;70071;55.130;61.268;2023-07-02T21:14:22;97148.09;;;23.75;51.31
80164;BME280;70071;55.130;61.268;2023-07-02T21:16:48;97130.56;;;23.64;51.34
80164;BME280;70071;55.130;61.268;2023-07-02T21:19:15;97137.72;;;23.60;51.63
80164;BME280;70071;55.130;61.268;2023-07-02T21:21:41;97150.94;;;23.62;51.92
80164;BME280;70071;55.130;61.268;2023-07-02T21:24:12;97150.97;;;23.70;51.39
80164;BME280;70071;55.130;61.268;2023-07-02T21:26:38;97140.41;;;23.60;51.58
80164;BME280;70071;55.130;61.268;2023-07-02T21:29:04;97145.69;;;23.65;51.68
80164;BME280;70071;55.130;61.268;2023-07-02T21:31:30;97144.09;;;23.64;51.42
80164;BME280;70071;55.130;61.268;2023-07-02T21:33:57;97142.19;;;23.65;51.70
80164;BME280;70071;55.130;61.268;2023-07-02T21:36:23;97151.09;;;23.65;51.36
80164;BME280;70071;55.130;61.268;2023-07-02T21:38:48;97152.03;;;23.60;51.60
80164;BME280;70071;55.130;61.268;2023-07-02T21:41:15;97163.06;;;23.64;51.43
80164;BME280;70071;55.130;61.268;2023-07-02T21:43:41;97156.50;;;23.56;51.85
80164;BME280;70071;55.130;61.268;2023-07-02T21:46:11;97154.09;;;23.55;52.69
80164;BME280;70071;55.130;61.268;2023-07-02T21:48:38;97157.09;;;23.53;52.36
80164;BME280;70071;55.130;61.268;2023-07-02T21:51:04;97166.66;;;23.51;52.20
80164;BME280;70071;55.130;61.268;2023-07-02T21:53:31;97166.66;;;23.51;51.63
80164;BME280;70071;55.130;61.268;2023-07-02T21:55:56;97165.84;;;23.50;52.31
80164;BME280;70071;55.130;61.268;2023-07-02T21:58:23;97174.19;;;23.71;51.71
80164;BME280;70071;55.130;61.268;2023-07-02T22:00:51;97156.28;;;23.44;52.30
80164;BME280;70071;55.130;61.268;2023-07-02T22:03:17;97152.44;;;23.36;52.03
80164;BME280;70071;55.130;61.268;2023-07-02T22:05:43;97154.34;;;23.36;52.71
80164;BME280;70071;55.130;61.268;2023-07-02T22:08:09;97160.13;;;23.43;52.51
80164;BME280;70071;55.130;61.268;2023-07-02T22:10:36;97156.13;;;23.40;52.70
80164;BME280;70071;55.130;61.268;2023-07-02T22:13:04;97139.06;;;23.31;52.76
80164;BME280;70071;55.130;61.268;2023-07-02T22:15:31;97140.16;;;23.30;52.45
80164;BME280;70071;55.130;61.268;2023-07-02T22:17:57;97138.28;;;23.31;52.67
80164;BME280;70071;55.130;61.268;2023-07-02T22:20:32;97147.66;;;23.33;52.94
80164;BME280;70071;55.130;61.268;2023-07-02T22:22:58;97146.38;;;23.31;52.33
80164;BME280;70071;55.130;61.268;2023-07-02T22:25:25;97154.31;;;23.27;53.16
80164;BME280;70071;55.130;61.268;2023-07-02T22:27:51;97146.16;;;23.18;52.96
80164;BME280;70071;55.130;61.268;2023-07-02T22:30:17;97138.97;;;23.14;52.98
80164;BME280;70071;55.130;61.268;2023-07-02T22:32:43;97139.09;;;23.09;52.49
80164;BME280;70071;55.130;61.268;2023-07-02T22:35:08;97163.13;;;23.41;52.14
80164;BME280;70071;55.130;61.268;2023-07-02T22:37:36;97167.84;;;23.27;52.87
80164;BME280;70071;55.130;61.268;2023-07-02T22:40:06;97158.22;;;23.12;53.13
80164;BME280;70071;55.130;61.268;2023-07-02T22:42:38;97172.13;;;23.19;53.23
80164;BME280;70071;55.130;61.268;2023-07-02T22:45:06;97152.09;;;22.98;52.83
80164;BME280;70071;55.130;61.268;2023-07-02T22:47:33;97184.00;;;23.10;53.14
80164;BME280;70071;55.130;61.268;2023-07-02T22:49:59;97179.69;;;23.09;52.94
80164;BME280;70071;55.130;61.268;2023-07-02T22:52:25;97167.88;;;23.04;53.17
80164;BME280;70071;55.130;61.268;2023-07-02T22:54:52;97162.25;;;22.92;53.46
80164;BME280;70071;55.130;61.268;2023-07-02T22:57:19;97173.25;;;22.96;53.69
80164;BME280;70071;55.130;61.268;2023-07-02T22:59:45;97178.47;;;22.92;53.36
80164;BME280;70071;55.130;61.268;2023-07-02T23:04:46;97178.47;;;22.92;53.36
80164;BME280;70071;55.130;61.268;2023-07-02T23:07:13;97175.28;;;22.90;53.45
80164;BME280;70071;55.130;61.268;2023-07-02T23:09:39;97178.00;;;22.90;53.64
80164;BME280;70071;55.130;61.268;2023-07-02T23:12:05;97187.03;;;22.85;53.49
80164;BME280;70071;55.130;61.268;2023-07-02T23:14:31;97188.44;;;22.83;53.87
80164;BME280;70071;55.130;61.268;2023-07-02T23:16:57;97191.13;;;22.83;53.87
80164;BME280;70071;55.130;61.268;2023-07-02T23:19:23;97182.97;;;22.74;53.96
80164;BME280;70071;55.130;61.268;2023-07-02T23:21:55;97177.38;;;22.70;53.82
80164;BME280;70071;55.130;61.268;2023-07-02T23:24:21;97177.75;;;22.78;53.75
80164;BME280;70071;55.130;61.268;2023-07-02T23:26:49;97194.31;;;22.85;53.87
80164;BME280;70071;55.130;61.268;2023-07-02T23:29:14;97205.75;;;23.04;53.10
80164;BME280;70071;55.130;61.268;2023-07-02T23:31:47;97210.56;;;22.85;53.24
80164;BME280;70071;55.130;61.268;2023-07-02T23:34:14;97205.41;;;22.75;54.27
80164;BME280;70071;55.130;61.268;2023-07-02T23:36:40;97201.09;;;22.74;54.18
80164;BME280;70071;55.130;61.268;2023-07-02T23:39:14;97206.88;;;22.81;54.41
80164;BME280;70071;55.130;61.268;2023-07-02T23:41:41;97200.72;;;22.66;54.21
80164;BME280;70071;55.130;61.268;2023-07-02T23:44:09;97211.31;;;22.77;54.78
80164;BME280;70071;55.130;61.268;2023-07-02T23:46:36;97200.13;;;22.69;54.88
80164;BME280;70071;55.130;61.268;2023-07-02T23:49:03;97206.81;;;22.72;55.16
80164;BME280;70071;55.130;61.268;2023-07-02T23:51:30;97202.03;;;22.69;55.01
80164;BME280;70071;55.130;61.268;2023-07-02T23:53:57;97204.56;;;22.65;55.40
80164;BME280;70071;55.130;61.268;2023-07-02T23:56:23;97189.06;;;22.57;55.18
80164;BME280;70071;55.130;61.268;2023-07-02T23:58:49;97186.03;;;22.59;55.02
